sensor_id;sensor_type;location;lat;lon;timestamp;temperature;humidity
49184;DHT22;35021;49.214;12.270;2023-03-14T00:00:51;20.10;46.10
49184;DHT22;35021;49.214;12.270;2023-03-14T00:03:18;20.10;46.10
49184;DHT22;35021;49.214;12.270;2023-03-14T00:05:45;20.10;46.10
49184;DHT22;35021;49.214;12.270;2023-03-14T00:08:12;20.00;46.20
49184;DHT22;35021;49.214;12.270;2023-03-14T00:10:39;19.90;46.40
49184;DHT22;35021;49.214;12.270;2023-03-14T00:13:06;19.90;46.50
49184;DHT22;35021;49.214;12.270;2023-03-14T00:15:33;19.80;46.60
49184;DHT22;35021;49.214;12.270;2023-03-14T00:18:01;19.80;46.80
49184;DHT22;35021;49.214;12.270;2023-03-14T00:20:28;19.70;46.80
49184;DHT22;35021;49.214;12.270;2023-03-14T00:22:54;19.70;46.90
49184;DHT22;35021;49.214;12.270;2023-03-14T00:25:21;19.60;46.90
49184;DHT22;35021;49.214;12.270;2023-03-14T00:27:50;19.60;47.00
49184;DHT22;35021;49.214;12.270;2023-03-14T00:30:17;19.60;47.00
49184;DHT22;35021;49.214;12.270;2023-03-14T00:32:44;19.60;47.00
49184;DHT22;35021;49.214;12.270;2023-03-14T00:35:11;19.60;47.00
49184;DHT22;35021;49.214;12.270;2023-03-14T00:37:38;19.60;47.00
49184;DHT22;35021;49.214;12.270;2023-03-14T00:40:06;19.60;46.90
49184;DHT22;35021;49.214;12.270;2023-03-14T00:42:34;19.60;46.80
49184;DHT22;35021;49.214;12.270;2023-03-14T00:45:01;19.60;46.80
49184;DHT22;35021;49.214;12.270;2023-03-14T00:47:29;19.60;46.80
49184;DHT22;35021;49.214;12.270;2023-03-14T00:49:55;19.60;46.80
49184;DHT22;35021;49.214;12.270;2023-03-14T00:52:23;19.60;46.80
49184;DHT22;35021;49.214;12.270;2023-03-14T00:54:50;19.70;46.80
49184;DHT22;35021;49.214;12.270;2023-03-14T00:57:17;19.70;46.90
49184;DHT22;35021;49.214;12.270;2023-03-14T00:59:44;19.70;46.90
49184;DHT22;35021;49.214;12.270;2023-03-14T01:02:10;19.70;47.10
49184;DHT22;35021;49.214;12.270;2023-03-14T01:04:37;19.70;46.90
49184;DHT22;35021;49.214;12.270;2023-03-14T01:07:06;19.70;46.90
49184;DHT22;35021;49.214;12.270;2023-03-14T01:09:32;19.70;47.00
49184;DHT22;35021;49.214;12.270;2023-03-14T01:11:59;19.70;47.00
49184;DHT22;35021;49.214;12.270;2023-03-14T01:14:26;19.70;47.00
49184;DHT22;35021;49.214;12.270;2023-03-14T01:16:53;19.70;46.90
49184;DHT22;35021;49.214;12.270;2023-03-14T01:19:20;19.70;46.80
49184;DHT22;35021;49.214;12.270;2023-03-14T01:21:46;19.70;46.70
49184;DHT22;35021;49.214;12.270;2023-03-14T01:24:13;19.70;46.60
49184;DHT22;35021;49.214;12.270;2023-03-14T01:26:40;19.80;46.60
49184;DHT22;35021;49.214;12.270;2023-03-14T01:29:07;19.70;46.50
49184;DHT22;35021;49.214;12.270;2023-03-14T01:31:34;19.70;46.50
49184;DHT22;35021;49.214;12.270;2023-03-14T01:34:01;19.70;46.40
49184;DHT22;35021;49.214;12.270;2023-03-14T01:36:28;19.70;46.40
49184;DHT22;35021;49.214;12.270;2023-03-14T01:38:57;19.70;46.40
49184;DHT22;35021;49.214;12.270;2023-03-14T01:41:25;19.70;46.30
49184;DHT22;35021;49.214;12.270;2023-03-14T01:43:52;19.70;46.30
49184;DHT22;35021;49.214;12.270;2023-03-14T01:46:39;19.70;46.30
49184;DHT22;35021;49.214;12.270;2023-03-14T01:51:56;19.80;46.40
49184;DHT22;35021;49.214;12.270;2023-03-14T01:59:37;19.80;46.30
49184;DHT22;35021;49.214;12.270;2023-03-14T02:02:06;19.80;46.30
49184;DHT22;35021;49.214;12.270;2023-03-14T02:04:35;19.80;46.20
49184;DHT22;35021;49.214;12.270;2023-03-14T02:07:11;19.80;46.20
49184;DHT22;35021;49.214;12.270;2023-03-14T02:09:39;19.70;46.10
49184;DHT22;35021;49.214;12.270;2023-03-14T02:12:08;19.70;46.10
49184;DHT22;35021;49.214;12.270;2023-03-14T02:14:37;19.80;46.20
49184;DHT22;35021;49.214;12.270;2023-03-14T02:17:05;19.80;46.20
49184;DHT22;35021;49.214;12.270;2023-03-14T02:22:37;19.80;46.20
49184;DHT22;35021;49.214;12.270;2023-03-14T02:27:35;19.80;46.30
49184;DHT22;35021;49.214;12.270;2023-03-14T02:30:10;19.80;46.40
49184;DHT22;35021;49.214;12.270;2023-03-14T02:32:39;19.80;47.10
49184;DHT22;35021;49.214;12.270;2023-03-14T02:35:09;19.80;46.40
49184;DHT22;35021;49.214;12.270;2023-03-14T02:37:53;19.80;46.40
49184;DHT22;35021;49.214;12.270;2023-03-14T02:40:21;19.80;46.40
49184;DHT22;35021;49.214;12.270;2023-03-14T02:42:48;19.80;46.40
49184;DHT22;35021;49.214;12.270;2023-03-14T02:47:55;19.80;46.50
49184;DHT22;35021;49.214;12.270;2023-03-14T02:50:27;19.80;46.40
49184;DHT22;35021;49.214;12.270;2023-03-14T02:52:55;19.80;46.40
49184;DHT22;35021;49.214;12.270;2023-03-14T02:55:23;19.70;46.40
49184;DHT22;35021;49.214;12.270;2023-03-14T02:57:50;19.70;46.40
49184;DHT22;35021;49.214;12.270;2023-03-14T03:00:19;19.70;46.40
49184;DHT22;35021;49.214;12.270;2023-03-14T03:02:46;19.70;46.50
49184;DHT22;35021;49.214;12.270;2023-03-14T03:05:16;19.70;47.30
49184;DHT22;35021;49.214;12.270;2023-03-14T03:07:43;19.60;46.60
49184;DHT22;35021;49.214;12.270;2023-03-14T03:10:11;19.60;46.70
49184;DHT22;35021;49.214;12.270;2023-03-14T03:12:38;19.60;46.80
49184;DHT22;35021;49.214;12.270;2023-03-14T03:15:05;19.50;47.00
49184;DHT22;35021;49.214;12.270;2023-03-14T03:17:32;19.50;47.70
49184;DHT22;35021;49.214;12.270;2023-03-14T03:19:59;19.60;47.00
49184;DHT22;35021;49.214;12.270;2023-03-14T03:22:26;19.60;46.90
49184;DHT22;35021;49.214;12.270;2023-03-14T03:24:53;19.70;46.80
49184;DHT22;35021;49.214;12.270;2023-03-14T03:27:20;19.70;46.60
49184;DHT22;35021;49.214;12.270;2023-03-14T03:29:47;19.80;46.50
49184;DHT22;35021;49.214;12.270;2023-03-14T03:32:14;19.90;46.30
49184;DHT22;35021;49.214;12.270;2023-03-14T03:34:41;20.00;46.10
49184;DHT22;35021;49.214;12.270;2023-03-14T03:37:08;20.10;45.90
49184;DHT22;35021;49.214;12.270;2023-03-14T03:39:35;20.20;45.80
49184;DHT22;35021;49.214;12.270;2023-03-14T03:42:02;20.30;45.60
49184;DHT22;35021;49.214;12.270;2023-03-14T03:44:28;20.30;45.40
49184;DHT22;35021;49.214;12.270;2023-03-14T03:46:55;20.40;45.30
49184;DHT22;35021;49.214;12.270;2023-03-14T03:49:22;20.40;45.20
49184;DHT22;35021;49.214;12.270;2023-03-14T03:51:49;20.40;45.10
49184;DHT22;35021;49.214;12.270;2023-03-14T03:54:16;20.40;45.20
49184;DHT22;35021;49.214;12.270;2023-03-14T03:56:43;20.40;45.30
49184;DHT22;35021;49.214;12.270;2023-03-14T03:59:10;20.40;45.30
49184;DHT22;35021;49.214;12.270;2023-03-14T04:01:36;20.30;45.30
49184;DHT22;35021;49.214;12.270;2023-03-14T04:04:03;20.40;45.30
49184;DHT22;35021;49.214;12.270;2023-03-14T04:06:30;20.40;45.20
49184;DHT22;35021;49.214;12.270;2023-03-14T04:08:58;20.40;45.10
49184;DHT22;35021;49.214;12.270;2023-03-14T04:11:25;20.40;45.00
49184;DHT22;35021;49.214;12.270;2023-03-14T04:13:52;20.50;45.00
49184;DHT22;35021;49.214;12.270;2023-03-14T04:16:21;20.50;44.80
49184;DHT22;35021;49.214;12.270;2023-03-14T04:18:49;20.50;44.80
49184;DHT22;35021;49.214;12.270;2023-03-14T04:21:16;20.50;44.70
49184;DHT22;35021;49.214;12.270;2023-03-14T04:23:44;20.50;44.70
49184;DHT22;35021;49.214;12.270;2023-03-14T04:26:10;20.50;44.70
49184;DHT22;35021;49.214;12.270;2023-03-14T04:28:37;20.50;44.80
49184;DHT22;35021;49.214;12.270;2023-03-14T04:31:18;20.40;44.80
49184;DHT22;35021;49.214;12.270;2023-03-14T04:33:46;20.40;45.10
49184;DHT22;35021;49.214;12.270;2023-03-14T04:36:13;20.30;45.20
49184;DHT22;35021;49.214;12.270;2023-03-14T04:38:40;20.30;44.90
49184;DHT22;35021;49.214;12.270;2023-03-14T04:41:07;20.30;44.80
49184;DHT22;35021;49.214;12.270;2023-03-14T04:43:34;20.30;44.80
49184;DHT22;35021;49.214;12.270;2023-03-14T04:46:01;20.30;44.70
49184;DHT22;35021;49.214;12.270;2023-03-14T04:48:28;20.30;44.70
49184;DHT22;35021;49.214;12.270;2023-03-14T04:50:55;20.30;44.80
49184;DHT22;35021;49.214;12.270;2023-03-14T04:53:22;20.20;44.80
49184;DHT22;35021;49.214;12.270;2023-03-14T04:55:53;20.20;44.80
49184;DHT22;35021;49.214;12.270;2023-03-14T04:58:21;20.10;44.80
49184;DHT22;35021;49.214;12.270;2023-03-14T05:00:48;20.10;44.90
49184;DHT22;35021;49.214;12.270;2023-03-14T05:03:17;20.00;44.90
49184;DHT22;35021;49.214;12.270;2023-03-14T05:05:45;20.00;45.00
49184;DHT22;35021;49.214;12.270;2023-03-14T05:08:12;20.00;45.00
49184;DHT22;35021;49.214;12.270;2023-03-14T05:10:39;20.00;44.90
49184;DHT22;35021;49.214;12.270;2023-03-14T05:13:06;20.10;45.00
49184;DHT22;35021;49.214;12.270;2023-03-14T05:15:33;20.10;44.90
49184;DHT22;35021;49.214;12.270;2023-03-14T05:18:00;20.10;44.90
49184;DHT22;35021;49.214;12.270;2023-03-14T05:20:27;20.10;44.80
49184;DHT22;35021;49.214;12.270;2023-03-14T05:22:53;20.10;44.80
49184;DHT22;35021;49.214;12.270;2023-03-14T05:25:20;20.20;44.80
49184;DHT22;35021;49.214;12.270;2023-03-14T05:27:47;20.20;44.70
49184;DHT22;35021;49.214;12.270;2023-03-14T05:30:14;20.20;44.60
49184;DHT22;35021;49.214;12.270;2023-03-14T05:32:41;20.20;44.50
49184;DHT22;35021;49.214;12.270;2023-03-14T05:35:09;20.20;44.50
49184;DHT22;35021;49.214;12.270;2023-03-14T05:37:36;20.20;44.50
49184;DHT22;35021;49.214;12.270;2023-03-14T05:40:03;20.20;44.40
49184;DHT22;35021;49.214;12.270;2023-03-14T05:42:33;20.20;44.40
49184;DHT22;35021;49.214;12.270;2023-03-14T05:44:59;20.20;44.40
49184;DHT22;35021;49.214;12.270;2023-03-14T05:47:26;20.10;44.50
49184;DHT22;35021;49.214;12.270;2023-03-14T05:49:53;20.10;44.50
49184;DHT22;35021;49.214;12.270;2023-03-14T05:52:20;20.10;44.50
49184;DHT22;35021;49.214;12.270;2023-03-14T05:54:47;20.00;44.50
49184;DHT22;35021;49.214;12.270;2023-03-14T05:57:13;20.00;44.50
49184;DHT22;35021;49.214;12.270;2023-03-14T05:59:40;20.00;44.60
49184;DHT22;35021;49.214;12.270;2023-03-14T06:02:07;20.00;44.60
49184;DHT22;35021;49.214;12.270;2023-03-14T06:04:34;20.00;44.60
49184;DHT22;35021;49.214;12.270;2023-03-14T06:07:01;20.10;44.60
49184;DHT22;35021;49.214;12.270;2023-03-14T06:09:28;20.10;44.60
49184;DHT22;35021;49.214;12.270;2023-03-14T06:11:55;20.20;44.50
49184;DHT22;35021;49.214;12.270;2023-03-14T06:14:22;20.20;44.40
49184;DHT22;35021;49.214;12.270;2023-03-14T06:16:48;20.20;44.40
49184;DHT22;35021;49.214;12.270;2023-03-14T06:19:16;20.30;44.20
49184;DHT22;35021;49.214;12.270;2023-03-14T06:21:43;20.30;44.10
49184;DHT22;35021;49.214;12.270;2023-03-14T06:24:10;20.30;44.00
49184;DHT22;35021;49.214;12.270;2023-03-14T06:26:36;20.30;43.90
49184;DHT22;35021;49.214;12.270;2023-03-14T06:29:03;20.40;43.90
49184;DHT22;35021;49.214;12.270;2023-03-14T06:31:31;20.30;43.90
49184;DHT22;35021;49.214;12.270;2023-03-14T06:33:59;20.30;44.00
49184;DHT22;35021;49.214;12.270;2023-03-14T06:36:25;20.20;44.10
49184;DHT22;35021;49.214;12.270;2023-03-14T06:38:52;20.20;44.20
49184;DHT22;35021;49.214;12.270;2023-03-14T06:41:19;20.20;44.30
49184;DHT22;35021;49.214;12.270;2023-03-14T06:43:46;20.10;44.20
49184;DHT22;35021;49.214;12.270;2023-03-14T06:46:13;20.20;44.30
49184;DHT22;35021;49.214;12.270;2023-03-14T06:48:40;20.20;44.30
49184;DHT22;35021;49.214;12.270;2023-03-14T06:51:07;20.20;44.20
49184;DHT22;35021;49.214;12.270;2023-03-14T06:53:33;20.20;44.10
49184;DHT22;35021;49.214;12.270;2023-03-14T06:56:00;20.30;43.90
49184;DHT22;35021;49.214;12.270;2023-03-14T06:58:27;20.30;43.90
49184;DHT22;35021;49.214;12.270;2023-03-14T07:00:54;20.30;43.80
49184;DHT22;35021;49.214;12.270;2023-03-14T07:03:21;20.40;43.80
49184;DHT22;35021;49.214;12.270;2023-03-14T07:05:48;20.40;43.70
49184;DHT22;35021;49.214;12.270;2023-03-14T07:08:15;20.40;43.60
49184;DHT22;35021;49.214;12.270;2023-03-14T07:10:42;20.40;43.60
49184;DHT22;35021;49.214;12.270;2023-03-14T07:13:08;20.40;43.60
49184;DHT22;35021;49.214;12.270;2023-03-14T07:15:35;20.40;43.60
49184;DHT22;35021;49.214;12.270;2023-03-14T07:18:02;20.40;43.60
49184;DHT22;35021;49.214;12.270;2023-03-14T07:20:29;20.40;43.60
49184;DHT22;35021;49.214;12.270;2023-03-14T07:22:59;20.30;43.60
49184;DHT22;35021;49.214;12.270;2023-03-14T07:25:26;20.30;43.70
49184;DHT22;35021;49.214;12.270;2023-03-14T07:27:53;20.30;43.70
49184;DHT22;35021;49.214;12.270;2023-03-14T07:30:20;20.30;43.80
49184;DHT22;35021;49.214;12.270;2023-03-14T07:32:47;20.30;43.70
49184;DHT22;35021;49.214;12.270;2023-03-14T07:35:14;20.30;43.70
49184;DHT22;35021;49.214;12.270;2023-03-14T07:37:40;20.30;43.60
49184;DHT22;35021;49.214;12.270;2023-03-14T07:40:08;20.30;43.50
49184;DHT22;35021;49.214;12.270;2023-03-14T07:42:37;20.40;43.50
49184;DHT22;35021;49.214;12.270;2023-03-14T07:45:04;20.40;43.40
49184;DHT22;35021;49.214;12.270;2023-03-14T07:47:31;20.50;43.40
49184;DHT22;35021;49.214;12.270;2023-03-14T07:49:57;20.50;43.40
49184;DHT22;35021;49.214;12.270;2023-03-14T07:52:24;20.50;43.40
49184;DHT22;35021;49.214;12.270;2023-03-14T07:54:51;20.50;43.40
49184;DHT22;35021;49.214;12.270;2023-03-14T07:57:18;20.50;43.40
49184;DHT22;35021;49.214;12.270;2023-03-14T07:59:45;20.40;43.40
49184;DHT22;35021;49.214;12.270;2023-03-14T08:02:12;20.40;43.50
49184;DHT22;35021;49.214;12.270;2023-03-14T08:04:40;20.40;43.50
49184;DHT22;35021;49.214;12.270;2023-03-14T08:07:07;20.30;43.50
49184;DHT22;35021;49.214;12.270;2023-03-14T08:09:34;20.30;43.60
49184;DHT22;35021;49.214;12.270;2023-03-14T08:12:01;20.20;43.70
49184;DHT22;35021;49.214;12.270;2023-03-14T08:14:28;20.20;43.70
49184;DHT22;35021;49.214;12.270;2023-03-14T08:16:56;20.10;43.70
49184;DHT22;35021;49.214;12.270;2023-03-14T08:19:23;20.10;43.70
49184;DHT22;35021;49.214;12.270;2023-03-14T08:21:50;20.10;43.70
49184;DHT22;35021;49.214;12.270;2023-03-14T08:24:17;20.10;43.70
49184;DHT22;35021;49.214;12.270;2023-03-14T08:26:43;20.10;43.60
49184;DHT22;35021;49.214;12.270;2023-03-14T08:29:10;20.20;44.30
49184;DHT22;35021;49.214;12.270;2023-03-14T08:31:39;20.20;43.60
49184;DHT22;35021;49.214;12.270;2023-03-14T08:34:06;20.20;43.50
49184;DHT22;35021;49.214;12.270;2023-03-14T08:36:33;20.30;43.30
49184;DHT22;35021;49.214;12.270;2023-03-14T08:39:00;20.30;43.20
49184;DHT22;35021;49.214;12.270;2023-03-14T08:41:27;20.40;43.30
49184;DHT22;35021;49.214;12.270;2023-03-14T08:43:54;20.40;43.20
49184;DHT22;35021;49.214;12.270;2023-03-14T08:46:21;20.40;43.10
49184;DHT22;35021;49.214;12.270;2023-03-14T08:48:48;20.40;43.10
49184;DHT22;35021;49.214;12.270;2023-03-14T08:51:14;20.40;43.10
49184;DHT22;35021;49.214;12.270;2023-03-14T08:54:01;20.30;43.20
49184;DHT22;35021;49.214;12.270;2023-03-14T08:56:28;20.30;43.20
49184;DHT22;35021;49.214;12.270;2023-03-14T08:58:55;20.20;43.30
49184;DHT22;35021;49.214;12.270;2023-03-14T09:01:22;20.20;43.40
49184;DHT22;35021;49.214;12.270;2023-03-14T09:03:51;20.20;43.60
49184;DHT22;35021;49.214;12.270;2023-03-14T09:06:18;20.20;43.60
49184;DHT22;35021;49.214;12.270;2023-03-14T09:08:45;20.20;43.50
49184;DHT22;35021;49.214;12.270;2023-03-14T09:11:13;20.20;43.60
49184;DHT22;35021;49.214;12.270;2023-03-14T09:13:40;20.20;43.50
49184;DHT22;35021;49.214;12.270;2023-03-14T09:16:08;20.20;43.50
49184;DHT22;35021;49.214;12.270;2023-03-14T09:18:35;20.30;43.50
49184;DHT22;35021;49.214;12.270;2023-03-14T09:21:02;20.30;43.50
49184;DHT22;35021;49.214;12.270;2023-03-14T09:23:29;20.40;43.50
49184;DHT22;35021;49.214;12.270;2023-03-14T09:25:57;20.40;43.30
49184;DHT22;35021;49.214;12.270;2023-03-14T09:28:24;20.50;43.20
49184;DHT22;35021;49.214;12.270;2023-03-14T09:30:51;20.50;43.20
49184;DHT22;35021;49.214;12.270;2023-03-14T09:33:18;20.60;43.00
49184;DHT22;35021;49.214;12.270;2023-03-14T09:35:45;20.60;43.00
49184;DHT22;35021;49.214;12.270;2023-03-14T09:38:12;20.70;43.00
49184;DHT22;35021;49.214;12.270;2023-03-14T09:40:39;20.70;43.00
49184;DHT22;35021;49.214;12.270;2023-03-14T09:43:08;20.70;42.90
49184;DHT22;35021;49.214;12.270;2023-03-14T09:45:38;20.70;42.90
49184;DHT22;35021;49.214;12.270;2023-03-14T09:48:22;20.70;42.90
49184;DHT22;35021;49.214;12.270;2023-03-14T09:50:56;20.70;42.80
49184;DHT22;35021;49.214;12.270;2023-03-14T09:53:27;20.80;42.80
49184;DHT22;35021;49.214;12.270;2023-03-14T09:55:56;20.80;42.60
49184;DHT22;35021;49.214;12.270;2023-03-14T09:58:24;20.90;42.50
49184;DHT22;35021;49.214;12.270;2023-03-14T10:00:54;20.90;42.40
49184;DHT22;35021;49.214;12.270;2023-03-14T10:03:32;21.00;42.40
49184;DHT22;35021;49.214;12.270;2023-03-14T10:05:59;21.00;42.30
49184;DHT22;35021;49.214;12.270;2023-03-14T10:08:26;21.10;42.20
49184;DHT22;35021;49.214;12.270;2023-03-14T10:10:54;21.10;42.00
49184;DHT22;35021;49.214;12.270;2023-03-14T10:13:26;21.20;41.90
49184;DHT22;35021;49.214;12.270;2023-03-14T10:16:02;21.20;41.80
49184;DHT22;35021;49.214;12.270;2023-03-14T10:18:31;21.20;41.80
49184;DHT22;35021;49.214;12.270;2023-03-14T10:21:26;21.20;41.90
49184;DHT22;35021;49.214;12.270;2023-03-14T10:23:54;21.20;41.80
49184;DHT22;35021;49.214;12.270;2023-03-14T10:26:27;21.20;41.90
49184;DHT22;35021;49.214;12.270;2023-03-14T10:29:03;21.20;41.90
49184;DHT22;35021;49.214;12.270;2023-03-14T10:32:04;21.30;41.90
49184;DHT22;35021;49.214;12.270;2023-03-14T10:34:35;21.30;41.90
49184;DHT22;35021;49.214;12.270;2023-03-14T10:39:48;21.30;41.70
49184;DHT22;35021;49.214;12.270;2023-03-14T10:42:26;21.40;41.60
49184;DHT22;35021;49.214;12.270;2023-03-14T10:44:59;21.40;41.50
49184;DHT22;35021;49.214;12.270;2023-03-14T10:47:27;21.50;41.40
49184;DHT22;35021;49.214;12.270;2023-03-14T10:49:56;21.50;41.30
49184;DHT22;35021;49.214;12.270;2023-03-14T10:52:29;21.50;41.10
49184;DHT22;35021;49.214;12.270;2023-03-14T10:55:20;21.60;41.00
49184;DHT22;35021;49.214;12.270;2023-03-14T10:57:48;21.60;40.90
49184;DHT22;35021;49.214;12.270;2023-03-14T11:00:20;21.60;40.80
49184;DHT22;35021;49.214;12.270;2023-03-14T11:08:07;21.70;40.60
49184;DHT22;35021;49.214;12.270;2023-03-14T11:10:39;21.70;40.60
49184;DHT22;35021;49.214;12.270;2023-03-14T11:13:26;21.70;40.50
49184;DHT22;35021;49.214;12.270;2023-03-14T11:16:47;21.70;40.50
49184;DHT22;35021;49.214;12.270;2023-03-14T11:22:21;21.60;40.50
49184;DHT22;35021;49.214;12.270;2023-03-14T11:27:48;21.50;40.50
49184;DHT22;35021;49.214;12.270;2023-03-14T11:30:52;21.50;40.50
49184;DHT22;35021;49.214;12.270;2023-03-14T11:33:27;21.50;40.50
49184;DHT22;35021;49.214;12.270;2023-03-14T11:38:40;21.40;40.30
49184;DHT22;35021;49.214;12.270;2023-03-14T11:43:47;21.40;40.40
49184;DHT22;35021;49.214;12.270;2023-03-14T11:46:31;21.40;40.50
49184;DHT22;35021;49.214;12.270;2023-03-14T11:49:36;21.40;40.60
49184;DHT22;35021;49.214;12.270;2023-03-14T11:52:10;21.30;40.70
49184;DHT22;35021;49.214;12.270;2023-03-14T11:54:44;21.30;40.80
49184;DHT22;35021;49.214;12.270;2023-03-14T11:57:18;21.30;40.90
49184;DHT22;35021;49.214;12.270;2023-03-14T12:00:05;21.20;40.80
49184;DHT22;35021;49.214;12.270;2023-03-14T12:10:49;21.00;41.20
49184;DHT22;35021;49.214;12.270;2023-03-14T12:13:18;20.90;41.30
49184;DHT22;35021;49.214;12.270;2023-03-14T12:15:57;20.80;42.10
49184;DHT22;35021;49.214;12.270;2023-03-14T12:18:30;20.80;41.70
49184;DHT22;35021;49.214;12.270;2023-03-14T12:21:06;20.70;41.80
49184;DHT22;35021;49.214;12.270;2023-03-14T12:23:49;20.60;42.00
49184;DHT22;35021;49.214;12.270;2023-03-14T12:26:22;20.60;42.20
49184;DHT22;35021;49.214;12.270;2023-03-14T12:39:31;20.50;42.40
49184;DHT22;35021;49.214;12.270;2023-03-14T12:44:48;20.50;42.20
49184;DHT22;35021;49.214;12.270;2023-03-14T12:49:46;20.70;41.90
49184;DHT22;35021;49.214;12.270;2023-03-14T12:52:19;20.70;41.80
49184;DHT22;35021;49.214;12.270;2023-03-14T12:54:57;20.80;41.70
49184;DHT22;35021;49.214;12.270;2023-03-14T12:57:32;20.90;41.50
49184;DHT22;35021;49.214;12.270;2023-03-14T13:00:44;21.00;41.40
49184;DHT22;35021;49.214;12.270;2023-03-14T13:05:53;21.10;41.80
49184;DHT22;35021;49.214;12.270;2023-03-14T13:08:39;21.10;42.10
49184;DHT22;35021;49.214;12.270;2023-03-14T13:11:19;21.10;42.30
49184;DHT22;35021;49.214;12.270;2023-03-14T13:13:49;21.20;42.60
49184;DHT22;35021;49.214;12.270;2023-03-14T13:16:20;21.20;42.60
49184;DHT22;35021;49.214;12.270;2023-03-14T13:18:49;21.30;42.70
49184;DHT22;35021;49.214;12.270;2023-03-14T13:21:21;21.40;42.60
49184;DHT22;35021;49.214;12.270;2023-03-14T13:23:58;21.40;42.50
49184;DHT22;35021;49.214;12.270;2023-03-14T13:26:35;21.50;42.40
49184;DHT22;35021;49.214;12.270;2023-03-14T13:31:48;21.60;42.30
49184;DHT22;35021;49.214;12.270;2023-03-14T13:34:15;21.60;42.30
49184;DHT22;35021;49.214;12.270;2023-03-14T13:36:43;21.60;42.40
49184;DHT22;35021;49.214;12.270;2023-03-14T13:39:13;21.60;42.30
49184;DHT22;35021;49.214;12.270;2023-03-14T13:41:41;21.50;42.20
49184;DHT22;35021;49.214;12.270;2023-03-14T13:46:48;21.40;42.30
49184;DHT22;35021;49.214;12.270;2023-03-14T13:49:22;21.40;42.50
49184;DHT22;35021;49.214;12.270;2023-03-14T13:51:50;21.30;42.70
49184;DHT22;35021;49.214;12.270;2023-03-14T13:54:19;21.30;42.90
49184;DHT22;35021;49.214;12.270;2023-03-14T13:56:48;21.20;43.00
49184;DHT22;35021;49.214;12.270;2023-03-14T13:59:41;21.10;43.10
49184;DHT22;35021;49.214;12.270;2023-03-14T14:02:13;21.00;43.40
49184;DHT22;35021;49.214;12.270;2023-03-14T14:04:44;21.00;43.80
49184;DHT22;35021;49.214;12.270;2023-03-14T14:07:15;20.90;44.00
49184;DHT22;35021;49.214;12.270;2023-03-14T14:09:50;20.90;44.30
49184;DHT22;35021;49.214;12.270;2023-03-14T14:12:38;20.80;44.40
49184;DHT22;35021;49.214;12.270;2023-03-14T14:15:10;20.80;44.60
49184;DHT22;35021;49.214;12.270;2023-03-14T14:18:01;20.70;44.70
49184;DHT22;35021;49.214;12.270;2023-03-14T14:20:33;20.70;44.70
49184;DHT22;35021;49.214;12.270;2023-03-14T14:23:09;20.70;44.70
49184;DHT22;35021;49.214;12.270;2023-03-14T14:25:37;20.70;44.60
49184;DHT22;35021;49.214;12.270;2023-03-14T14:28:30;20.70;44.60
49184;DHT22;35021;49.214;12.270;2023-03-14T14:33:30;20.70;44.50
49184;DHT22;35021;49.214;12.270;2023-03-14T14:36:04;20.80;44.40
49184;DHT22;35021;49.214;12.270;2023-03-14T14:38:31;20.80;44.30
49184;DHT22;35021;49.214;12.270;2023-03-14T14:41:02;20.80;44.30
49184;DHT22;35021;49.214;12.270;2023-03-14T14:43:35;20.90;44.20
49184;DHT22;35021;49.214;12.270;2023-03-14T14:46:06;21.00;44.00
49184;DHT22;35021;49.214;12.270;2023-03-14T14:48:37;21.00;43.80
49184;DHT22;35021;49.214;12.270;2023-03-14T14:51:06;21.10;43.60
49184;DHT22;35021;49.214;12.270;2023-03-14T14:53:41;21.10;43.40
49184;DHT22;35021;49.214;12.270;2023-03-14T14:56:26;21.20;43.20
49184;DHT22;35021;49.214;12.270;2023-03-14T14:59:01;21.20;43.10
49184;DHT22;35021;49.214;12.270;2023-03-14T15:01:35;21.30;43.10
49184;DHT22;35021;49.214;12.270;2023-03-14T15:04:11;21.30;43.00
49184;DHT22;35021;49.214;12.270;2023-03-14T15:06:42;21.40;43.10
49184;DHT22;35021;49.214;12.270;2023-03-14T15:09:11;21.40;42.90
49184;DHT22;35021;49.214;12.270;2023-03-14T15:11:38;21.50;42.90
49184;DHT22;35021;49.214;12.270;2023-03-14T15:14:05;21.50;42.70
49184;DHT22;35021;49.214;12.270;2023-03-14T15:16:34;21.50;42.60
49184;DHT22;35021;49.214;12.270;2023-03-14T15:19:03;21.50;42.50
49184;DHT22;35021;49.214;12.270;2023-03-14T15:21:52;21.50;42.50
49184;DHT22;35021;49.214;12.270;2023-03-14T15:24:18;21.50;42.40
49184;DHT22;35021;49.214;12.270;2023-03-14T15:26:45;21.50;43.00
49184;DHT22;35021;49.214;12.270;2023-03-14T15:29:12;21.50;42.30
49184;DHT22;35021;49.214;12.270;2023-03-14T15:31:40;21.50;42.40
49184;DHT22;35021;49.214;12.270;2023-03-14T15:34:11;21.40;42.30
49184;DHT22;35021;49.214;12.270;2023-03-14T15:36:38;21.30;42.30
49184;DHT22;35021;49.214;12.270;2023-03-14T15:39:06;21.20;42.40
49184;DHT22;35021;49.214;12.270;2023-03-14T15:41:33;21.20;42.60
49184;DHT22;35021;49.214;12.270;2023-03-14T15:44:02;21.10;42.60
49184;DHT22;35021;49.214;12.270;2023-03-14T15:46:29;21.00;42.90
49184;DHT22;35021;49.214;12.270;2023-03-14T15:48:57;21.00;43.60
49184;DHT22;35021;49.214;12.270;2023-03-14T15:51:23;20.90;43.90
49184;DHT22;35021;49.214;12.270;2023-03-14T15:53:51;20.90;43.80
49184;DHT22;35021;49.214;12.270;2023-03-14T15:56:20;20.90;43.20
49184;DHT22;35021;49.214;12.270;2023-03-14T15:58:47;20.90;43.30
49184;DHT22;35021;49.214;12.270;2023-03-14T16:01:15;20.90;42.00
49184;DHT22;35021;49.214;12.270;2023-03-14T16:03:46;20.90;41.70
49184;DHT22;35021;49.214;12.270;2023-03-14T16:06:13;20.90;41.40
49184;DHT22;35021;49.214;12.270;2023-03-14T16:08:41;20.90;41.20
49184;DHT22;35021;49.214;12.270;2023-03-14T16:11:10;21.00;41.00
49184;DHT22;35021;49.214;12.270;2023-03-14T16:13:37;21.00;40.90
49184;DHT22;35021;49.214;12.270;2023-03-14T16:16:05;21.10;40.70
49184;DHT22;35021;49.214;12.270;2023-03-14T16:18:35;21.10;40.40
49184;DHT22;35021;49.214;12.270;2023-03-14T16:21:16;21.00;40.20
49184;DHT22;35021;49.214;12.270;2023-03-14T16:23:43;21.00;40.10
49184;DHT22;35021;49.214;12.270;2023-03-14T16:26:16;21.00;40.00
49184;DHT22;35021;49.214;12.270;2023-03-14T16:28:44;20.90;40.00
49184;DHT22;35021;49.214;12.270;2023-03-14T16:31:14;20.80;39.90
49184;DHT22;35021;49.214;12.270;2023-03-14T16:33:42;20.70;39.90
49184;DHT22;35021;49.214;12.270;2023-03-14T16:36:11;20.70;39.90
49184;DHT22;35021;49.214;12.270;2023-03-14T16:38:41;20.70;39.70
49184;DHT22;35021;49.214;12.270;2023-03-14T16:41:19;20.60;39.60